createdAt,value
2023-03-13T00:02:14.649Z,4.70
2023-03-13T00:04:41.466Z,4.70
2023-03-13T00:07:08.203Z,4.70
2023-03-13T00:09:34.910Z,4.60
2023-03-13T00:12:01.532Z,4.60
2023-03-13T00:14:28.190Z,4.60
2023-03-13T00:16:54.956Z,4.60
2023-03-13T00:19:21.704Z,4.60
2023-03-13T00:21:48.478Z,4.60
2023-03-13T00:24:15.232Z,4.60
2023-03-13T00:26:42.112Z,4.60
2023-03-13T00:29:08.933Z,4.60
2023-03-13T00:31:35.609Z,4.60
2023-03-13T00:34:03.828Z,4.60
2023-03-13T00:36:35.447Z,4.60
2023-03-13T00:39:03.917Z,4.70
2023-03-13T00:41:33.309Z,4.70
2023-03-13T00:44:00.315Z,4.60
2023-03-13T00:46:29.511Z,4.70
2023-03-13T00:48:56.948Z,4.70
2023-03-13T00:51:26.705Z,4.70
2023-03-13T00:53:53.750Z,4.70
2023-03-13T00:56:22.656Z,4.60
2023-03-13T00:58:50.468Z,4.70
2023-03-13T01:01:21.512Z,4.70
2023-03-13T01:03:52.524Z,4.60
2023-03-13T01:06:22.445Z,4.70
2023-03-13T01:08:49.928Z,4.60
2023-03-13T01:11:20.033Z,4.70
2023-03-13T01:13:47.325Z,4.70
2023-03-13T01:16:16.340Z,4.70
2023-03-13T01:18:45.925Z,4.70
2023-03-13T01:21:13.822Z,4.70
2023-03-13T01:23:40.651Z,4.70
2023-03-13T01:26:08.686Z,4.70
2023-03-13T01:28:36.565Z,4.70
2023-03-13T01:31:24.864Z,4.70
2023-03-13T01:33:57.564Z,4.60
2023-03-13T01:36:25.681Z,4.70
2023-03-13T01:38:54.382Z,4.70
2023-03-13T01:41:22.342Z,4.60
2023-03-13T01:43:49.274Z,4.60
2023-03-13T01:46:21.453Z,4.60
2023-03-13T01:49:05.312Z,4.60
2023-03-13T01:51:34.721Z,4.60
2023-03-13T01:54:22.907Z,4.70
2023-03-13T01:57:01.464Z,4.70
2023-03-13T01:59:52.933Z,4.80
2023-03-13T02:02:21.507Z,5.00
2023-03-13T02:04:54.477Z,5.30
2023-03-13T02:07:31.194Z,5.50
2023-03-13T02:09:58.762Z,5.70
2023-03-13T02:12:33.981Z,5.80
2023-03-13T02:15:07.667Z,5.80
2023-03-13T02:17:36.367Z,5.80
2023-03-13T02:20:04.199Z,5.80
2023-03-13T02:22:39.470Z,5.50
2023-03-13T02:25:22.128Z,5.30
2023-03-13T02:27:56.023Z,5.10
2023-03-13T02:30:23.095Z,5.00
2023-03-13T02:32:50.535Z,5.00
2023-03-13T02:35:19.646Z,5.00
2023-03-13T02:37:51.706Z,5.30
2023-03-13T02:40:24.322Z,5.60
2023-03-13T02:42:52.206Z,5.70
2023-03-13T02:45:19.343Z,5.90
2023-03-13T02:47:46.182Z,5.90
2023-03-13T02:50:14.064Z,6.00
2023-03-13T02:52:45.455Z,6.00
2023-03-13T02:55:22.277Z,6.00
2023-03-13T02:57:49.202Z,6.20
2023-03-13T03:00:17.402Z,6.30
2023-03-13T03:02:44.898Z,6.50
2023-03-13T03:05:13.233Z,6.60
2023-03-13T03:07:40.015Z,6.70
2023-03-13T03:10:07.277Z,6.70
2023-03-13T03:12:34.059Z,6.70
2023-03-13T03:15:00.831Z,6.80
2023-03-13T03:17:27.509Z,6.80
2023-03-13T03:19:54.147Z,6.90
2023-03-13T03:22:20.746Z,7.00
2023-03-13T03:24:47.453Z,7.00
2023-03-13T03:27:14.203Z,7.10
2023-03-13T03:29:40.968Z,7.20
2023-03-13T03:32:07.673Z,7.30
2023-03-13T03:34:34.694Z,7.20
2023-03-13T03:37:01.319Z,7.20
2023-03-13T03:39:28.210Z,7.30
2023-03-13T03:41:55.182Z,7.30
2023-03-13T03:44:22.056Z,7.50
2023-03-13T03:46:48.760Z,7.50
2023-03-13T03:49:15.427Z,7.40
2023-03-13T03:51:42.080Z,7.40
2023-03-13T03:54:08.868Z,7.50
2023-03-13T03:56:35.636Z,7.50
2023-03-13T03:59:02.371Z,7.50
2023-03-13T04:01:29.069Z,7.60
2023-03-13T04:03:55.767Z,7.70
2023-03-13T04:06:22.560Z,7.80
2023-03-13T04:08:49.390Z,7.80
2023-03-13T04:11:16.261Z,7.90
2023-03-13T04:13:43.262Z,7.80
2023-03-13T04:16:10.559Z,8.00
2023-03-13T04:18:37.248Z,8.10
2023-03-13T04:21:05.946Z,8.10
2023-03-13T04:23:32.925Z,8.10
2023-03-13T04:26:00.238Z,8.20
2023-03-13T04:28:27.156Z,8.30
2023-03-13T04:30:57.414Z,8.30
2023-03-13T04:33:27.539Z,8.40
2023-03-13T04:35:54.254Z,8.60
2023-03-13T04:38:21.063Z,8.60
2023-03-13T04:40:48.628Z,8.60
2023-03-13T04:43:15.377Z,8.60
2023-03-13T04:45:42.133Z,8.60
2023-03-13T04:48:08.946Z,8.80
2023-03-13T04:50:35.635Z,8.70
2023-03-13T04:53:02.346Z,8.70
2023-03-13T04:55:28.979Z,8.70
2023-03-13T04:57:55.754Z,8.70
2023-03-13T05:00:22.432Z,8.70
2023-03-13T05:02:49.100Z,8.70
2023-03-13T05:05:15.779Z,8.60
2023-03-13T05:07:42.509Z,8.60
2023-03-13T05:10:09.742Z,8.70
2023-03-13T05:12:36.536Z,8.80
2023-03-13T05:15:03.267Z,8.90
2023-03-13T05:17:29.925Z,8.90
2023-03-13T05:19:56.707Z,8.90
2023-03-13T05:22:23.419Z,8.90
2023-03-13T05:24:50.039Z,9.00
2023-03-13T05:27:16.684Z,9.00
2023-03-13T05:29:43.322Z,9.00
2023-03-13T05:32:10.487Z,9.00
2023-03-13T05:34:37.190Z,9.10
2023-03-13T05:37:04.091Z,9.20
2023-03-13T05:39:30.928Z,9.20
2023-03-13T05:41:57.676Z,9.10
2023-03-13T05:44:24.532Z,9.30
2023-03-13T05:46:51.377Z,9.30
2023-03-13T05:49:18.487Z,9.50
2023-03-13T05:51:45.309Z,9.40
2023-03-13T05:54:15.287Z,9.40
2023-03-13T05:56:42.479Z,9.40
2023-03-13T05:59:09.392Z,9.40
2023-03-13T06:01:39.348Z,9.40
2023-03-13T06:04:06.360Z,9.40
2023-03-13T06:06:33.334Z,9.40
2023-03-13T06:09:17.178Z,9.50
2023-03-13T06:11:44.082Z,9.50
2023-03-13T06:14:11.052Z,9.50
2023-03-13T06:16:37.849Z,9.50
2023-03-13T06:19:04.678Z,9.60
2023-03-13T06:21:31.493Z,9.60
2023-03-13T06:23:58.462Z,9.60
2023-03-13T06:26:28.408Z,9.70
2023-03-13T06:28:55.313Z,9.70
2023-03-13T06:31:26.469Z,9.80
2023-03-13T06:33:54.655Z,9.80
2023-03-13T06:36:22.847Z,9.90
2023-03-13T06:38:50.125Z,9.90
2023-03-13T06:41:17.115Z,9.90
2023-03-13T06:43:48.240Z,10.00
2023-03-13T06:46:21.055Z,10.00
2023-03-13T06:48:48.506Z,10.00
2023-03-13T06:51:17.571Z,10.00
2023-03-13T06:53:44.619Z,10.00
2023-03-13T06:56:15.102Z,10.10
2023-03-13T06:58:49.436Z,10.10
2023-03-13T07:01:17.681Z,10.10
2023-03-13T07:03:44.669Z,10.10
2023-03-13T07:06:12.721Z,10.10
2023-03-13T07:08:41.358Z,10.00
2023-03-13T07:11:13.444Z,10.10
2023-03-13T07:13:40.448Z,10.10
2023-03-13T07:16:27.533Z,10.10
2023-03-13T07:19:24.310Z,10.10
2023-03-13T07:21:53.356Z,10.20
2023-03-13T07:24:23.344Z,10.20
2023-03-13T07:27:04.116Z,10.20
2023-03-13T07:29:34.137Z,10.30
2023-03-13T07:32:26.762Z,10.20
2023-03-13T07:34:53.853Z,10.30
2023-03-13T07:37:20.627Z,10.40
2023-03-13T07:39:53.825Z,10.30
2023-03-13T07:42:20.590Z,10.30
2023-03-13T07:44:49.263Z,10.40
2023-03-13T07:47:17.672Z,10.40
2023-03-13T07:49:46.750Z,10.50
2023-03-13T07:52:29.006Z,10.50
2023-03-13T07:55:03.245Z,10.50
2023-03-13T07:57:56.589Z,10.50
2023-03-13T08:03:19.467Z,10.70
2023-03-13T08:06:03.030Z,10.70
2023-03-13T08:08:33.481Z,10.70
2023-03-13T08:14:07.007Z,10.80
2023-03-13T08:16:49.213Z,10.90
2023-03-13T08:22:05.345Z,11.00
2023-03-13T08:24:46.116Z,11.10
2023-03-13T08:27:18.739Z,11.20
2023-03-13T08:29:55.671Z,11.30
2023-03-13T08:32:24.331Z,11.30
2023-03-13T08:35:39.201Z,11.30
2023-03-13T08:38:15.326Z,11.30
2023-03-13T08:40:42.349Z,11.40
2023-03-13T08:43:24.885Z,11.40
2023-03-13T08:46:18.527Z,11.40
2023-03-13T08:48:53.476Z,11.50
2023-03-13T08:51:35.746Z,11.50
2023-03-13T08:54:06.973Z,11.50
2023-03-13T08:56:37.726Z,11.40
2023-03-13T08:59:06.090Z,11.40
2023-03-13T09:02:19.902Z,11.50
2023-03-13T09:05:06.076Z,11.50
2023-03-13T09:07:38.981Z,11.70
2023-03-13T09:10:21.828Z,11.60
2023-03-13T09:13:12.715Z,11.70
2023-03-13T09:15:59.615Z,11.70
2023-03-13T09:18:45.093Z,11.70
2023-03-13T09:21:17.392Z,11.80
2023-03-13T09:23:44.069Z,11.80
2023-03-13T09:26:14.241Z,11.80
2023-03-13T09:28:44.006Z,11.80
2023-03-13T09:31:12.058Z,11.90
2023-03-13T09:33:40.547Z,11.90
2023-03-13T09:36:08.435Z,12.00
2023-03-13T09:38:36.438Z,12.10
2023-03-13T09:41:22.539Z,12.10
2023-03-13T09:44:06.239Z,12.20
2023-03-13T09:46:54.622Z,12.20
2023-03-13T09:49:41.252Z,12.30
2023-03-13T09:52:34.568Z,12.40
2023-03-13T09:55:23.411Z,12.60
2023-03-13T09:57:55.702Z,13.00
2023-03-13T10:00:30.134Z,13.50
2023-03-13T10:03:00.676Z,13.70
2023-03-13T10:05:29.661Z,13.90
2023-03-13T10:08:01.803Z,14.20
2023-03-13T10:10:57.823Z,14.40
2023-03-13T10:13:46.369Z,14.60
2023-03-13T10:16:29.056Z,14.90
2023-03-13T10:19:08.112Z,15.20
2023-03-13T10:21:37.097Z,15.30
2023-03-13T10:24:42.207Z,15.50
2023-03-13T10:27:14.303Z,15.60
2023-03-13T10:29:41.058Z,15.70
2023-03-13T10:32:10.268Z,15.80
2023-03-13T10:34:58.899Z,15.90
2023-03-13T10:37:31.751Z,15.80
2023-03-13T10:40:23.106Z,15.60
2023-03-13T10:42:51.917Z,15.20
2023-03-13T10:45:24.688Z,15.10
2023-03-13T10:48:02.477Z,15.00
2023-03-13T10:50:34.010Z,14.80
2023-03-13T10:53:21.439Z,14.70
2023-03-13T10:55:48.596Z,14.70
2023-03-13T10:58:40.428Z,14.80
2023-03-13T11:01:25.712Z,14.70
2023-03-13T11:03:54.944Z,14.70
2023-03-13T11:06:35.237Z,14.70
2023-03-13T11:09:15.055Z,14.70
2023-03-13T11:11:49.460Z,14.70
2023-03-13T11:14:22.101Z,14.70
2023-03-13T11:17:15.847Z,14.80
2023-03-13T11:19:57.859Z,14.70
2023-03-13T11:22:44.848Z,14.70
2023-03-13T11:25:28.187Z,14.70
2023-03-13T11:28:03.753Z,14.60
2023-03-13T11:30:50.785Z,14.70
2023-03-13T11:33:38.350Z,14.70
2023-03-13T11:36:35.438Z,14.80
2023-03-13T11:39:08.052Z,14.80
2023-03-13T11:42:01.677Z,14.90
2023-03-13T11:44:46.407Z,14.90
2023-03-13T11:47:41.810Z,15.00
2023-03-13T11:50:32.431Z,15.10
2023-03-13T11:53:26.368Z,15.40
2023-03-13T11:56:06.862Z,15.50
2023-03-13T11:58:55.783Z,15.60
2023-03-13T12:01:38.830Z,16.10
2023-03-13T12:04:16.903Z,16.50
2023-03-13T12:06:59.461Z,16.80
2023-03-13T12:09:41.526Z,17.00
2023-03-13T12:12:55.785Z,17.20
2023-03-13T12:15:35.944Z,17.30
2023-03-13T12:18:22.536Z,17.40
2023-03-13T12:21:10.680Z,17.40
2023-03-13T12:24:03.863Z,17.50
2023-03-13T12:27:26.489Z,17.60
2023-03-13T12:30:00.671Z,17.60
2023-03-13T12:32:54.832Z,17.70
2023-03-13T12:35:24.646Z,17.70
2023-03-13T12:38:20.325Z,17.70
2023-03-13T12:40:50.164Z,17.70
2023-03-13T12:43:40.119Z,17.70
2023-03-13T12:46:19.294Z,17.80
2023-03-13T12:48:48.788Z,17.70
2023-03-13T12:51:36.379Z,17.80
2023-03-13T12:54:42.350Z,17.80
2023-03-13T12:57:08.970Z,17.80
2023-03-13T12:59:40.636Z,17.80
2023-03-13T13:02:20.541Z,17.80
2023-03-13T13:04:49.656Z,17.90
2023-03-13T13:07:35.617Z,17.90
2023-03-13T13:10:10.403Z,18.00
2023-03-13T13:13:00.083Z,18.00
2023-03-13T13:15:28.931Z,18.00
2023-03-13T13:18:01.824Z,18.10
2023-03-13T13:20:34.596Z,18.20
2023-03-13T13:23:21.700Z,18.20
2023-03-13T13:25:49.778Z,18.20
2023-03-13T13:28:21.797Z,18.20
2023-03-13T13:30:50.006Z,18.20
2023-03-13T13:33:20.320Z,18.10
2023-03-13T13:36:07.595Z,18.00
2023-03-13T13:38:40.456Z,18.00
2023-03-13T13:41:10.078Z,18.00
2023-03-13T13:43:38.220Z,18.00
2023-03-13T13:46:10.858Z,18.00
2023-03-13T13:48:39.866Z,18.00
2023-03-13T13:51:13.922Z,17.90
2023-03-13T13:53:46.460Z,18.00
2023-03-13T13:56:31.041Z,18.10
2023-03-13T13:59:22.467Z,18.10
2023-03-13T14:02:10.899Z,18.20
2023-03-13T14:04:50.444Z,18.20
2023-03-13T14:07:39.221Z,18.20
2023-03-13T14:10:18.883Z,18.20
2023-03-13T14:12:51.498Z,18.30
2023-03-13T14:15:24.132Z,18.40
2023-03-13T14:17:54.883Z,18.30
2023-03-13T14:20:37.227Z,18.30
2023-03-13T14:23:13.249Z,18.30
2023-03-13T14:25:47.716Z,18.30
2023-03-13T14:28:20.140Z,18.40
2023-03-13T14:30:49.026Z,18.40
2023-03-13T14:33:16.017Z,18.50
2023-03-13T14:35:43.085Z,18.50
2023-03-13T14:38:27.672Z,18.60
2023-03-13T14:40:56.051Z,18.40
2023-03-13T14:43:41.787Z,18.40
2023-03-13T14:46:25.280Z,18.30
2023-03-13T14:48:55.857Z,18.40
2023-03-13T14:51:27.448Z,18.30
2023-03-13T14:53:59.180Z,18.40
2023-03-13T14:56:38.225Z,18.30
2023-03-13T14:59:26.163Z,18.30
2023-03-13T15:02:20.372Z,18.20
2023-03-13T15:04:52.681Z,18.10
2023-03-13T15:07:20.270Z,18.10
2023-03-13T15:09:48.411Z,18.10
2023-03-13T15:12:18.346Z,18.00
2023-03-13T15:14:47.454Z,18.20
2023-03-13T15:17:15.962Z,18.20
2023-03-13T15:19:43.578Z,18.20
2023-03-13T15:22:13.970Z,18.20
2023-03-13T15:24:42.214Z,18.10
2023-03-13T15:27:17.028Z,18.10
2023-03-13T15:29:44.247Z,18.10
2023-03-13T15:32:33.807Z,18.20
2023-03-13T15:35:02.020Z,18.10
2023-03-13T15:37:30.399Z,18.10
2023-03-13T15:39:57.957Z,18.10
2023-03-13T15:42:25.550Z,18.10
2023-03-13T15:44:52.324Z,18.10
2023-03-13T15:47:21.710Z,18.10
2023-03-13T15:49:48.784Z,18.00
2023-03-13T15:52:19.398Z,18.00
2023-03-13T15:54:46.759Z,18.00
2023-03-13T15:57:27.186Z,18.00
2023-03-13T15:59:54.374Z,18.00
2023-03-13T16:02:23.479Z,18.00
2023-03-13T16:04:53.106Z,18.00
2023-03-13T16:07:21.246Z,17.90
2023-03-13T16:09:48.707Z,17.90
2023-03-13T16:12:15.369Z,18.00
2023-03-13T16:14:42.247Z,17.90
2023-03-13T16:17:19.921Z,17.90
2023-03-13T16:19:47.006Z,17.90
2023-03-13T16:22:14.278Z,17.90
2023-03-13T16:24:42.111Z,17.90
2023-03-13T16:27:21.110Z,17.90
2023-03-13T16:29:47.901Z,17.90
2023-03-13T16:32:16.862Z,17.80
2023-03-13T16:34:43.582Z,17.70
2023-03-13T16:37:16.398Z,17.70
2023-03-13T16:39:44.579Z,17.60
2023-03-13T16:42:12.141Z,17.50
2023-03-13T16:44:39.097Z,17.40
2023-03-13T16:47:15.942Z,17.40
2023-03-13T16:49:42.683Z,17.30
2023-03-13T16:52:15.376Z,17.30
2023-03-13T16:54:42.822Z,17.20
2023-03-13T16:57:14.242Z,17.00
2023-03-13T16:59:41.094Z,17.00
2023-03-13T17:02:18.845Z,16.90
2023-03-13T17:04:46.633Z,16.80
2023-03-13T17:07:23.265Z,16.70
2023-03-13T17:09:51.453Z,16.60
2023-03-13T17:12:19.607Z,16.50
2023-03-13T17:14:46.843Z,16.50
2023-03-13T17:17:17.231Z,16.40
2023-03-13T17:19:44.655Z,16.30
2023-03-13T17:22:16.968Z,16.30
2023-03-13T17:24:44.044Z,16.30
2023-03-13T17:27:13.712Z,16.20
2023-03-13T17:29:40.870Z,16.10
2023-03-13T17:32:12.990Z,16.10
2023-03-13T17:34:40.227Z,16.00
2023-03-13T17:37:18.527Z,16.00
2023-03-13T17:39:46.492Z,15.90
2023-03-13T17:42:13.548Z,15.90
2023-03-13T17:44:41.331Z,15.80
2023-03-13T17:47:13.613Z,15.70
2023-03-13T17:49:40.355Z,15.70
2023-03-13T17:52:09.825Z,15.60
2023-03-13T17:54:36.493Z,15.60
2023-03-13T17:57:03.367Z,15.50
2023-03-13T17:59:30.565Z,15.50
2023-03-13T18:01:57.397Z,15.50
2023-03-13T18:04:24.100Z,15.40
2023-03-13T18:06:50.972Z,15.40
2023-03-13T18:09:21.365Z,15.40
2023-03-13T18:11:49.412Z,15.40
2023-03-13T18:14:16.420Z,15.50
2023-03-13T18:16:48.577Z,15.50
2023-03-13T18:19:22.708Z,15.40
2023-03-13T18:21:51.892Z,15.40
2023-03-13T18:24:18.668Z,15.40
2023-03-13T18:26:47.068Z,15.40
2023-03-13T18:29:17.154Z,15.40
2023-03-13T18:31:44.037Z,15.40
2023-03-13T18:34:11.959Z,15.30
2023-03-13T18:36:38.893Z,15.20
2023-03-13T18:39:06.193Z,15.10
2023-03-13T18:41:33.659Z,15.00
2023-03-13T18:44:03.362Z,15.00
2023-03-13T18:46:33.438Z,14.90
2023-03-13T18:49:01.154Z,14.60
2023-03-13T18:51:28.567Z,13.90
2023-03-13T18:53:55.646Z,13.10
2023-03-13T18:56:28.038Z,12.60
2023-03-13T18:58:55.921Z,12.60
2023-03-13T19:01:25.023Z,12.70
2023-03-13T19:03:52.411Z,12.80
2023-03-13T19:06:25.570Z,12.80
2023-03-13T19:08:54.824Z,12.90
2023-03-13T19:11:24.729Z,13.00
2023-03-13T19:13:51.449Z,12.90
2023-03-13T19:16:38.534Z,12.90
2023-03-13T19:19:14.942Z,12.80
2023-03-13T19:21:41.988Z,12.90
2023-03-13T19:24:09.216Z,12.80
2023-03-13T19:26:41.589Z,12.80
2023-03-13T19:29:28.524Z,12.70
2023-03-13T19:31:55.428Z,12.70
2023-03-13T19:34:22.528Z,12.60
2023-03-13T19:36:53.442Z,12.60
2023-03-13T19:39:25.717Z,12.60
2023-03-13T19:41:53.725Z,12.60
2023-03-13T19:44:21.303Z,12.50
2023-03-13T19:46:49.007Z,12.40
2023-03-13T19:49:20.892Z,12.40
2023-03-13T19:51:48.354Z,12.40
2023-03-13T19:54:15.316Z,12.40
2023-03-13T19:56:44.830Z,12.40
2023-03-13T19:59:17.208Z,12.30
2023-03-13T20:01:44.198Z,12.20
2023-03-13T20:04:11.619Z,12.20
2023-03-13T20:06:40.254Z,12.20
2023-03-13T20:09:09.888Z,12.20
2023-03-13T20:11:37.275Z,12.20
2023-03-13T20:14:04.927Z,12.20
2023-03-13T20:16:34.467Z,12.20
2023-03-13T20:19:02.678Z,12.20
2023-03-13T20:21:32.442Z,12.10
2023-03-13T20:23:59.587Z,12.20
2023-03-13T20:26:27.819Z,12.00
2023-03-13T20:28:55.319Z,11.70
2023-03-13T20:31:25.251Z,11.40
2023-03-13T20:33:51.972Z,11.10
2023-03-13T20:36:20.788Z,11.00
2023-03-13T20:38:48.637Z,10.80
2023-03-13T20:41:24.433Z,10.70
2023-03-13T20:43:52.487Z,10.60
2023-03-13T20:46:19.931Z,10.70
2023-03-13T20:48:46.796Z,10.60
2023-03-13T20:51:13.705Z,10.60
2023-03-13T20:53:41.947Z,10.60
2023-03-13T20:56:09.672Z,10.60
2023-03-13T20:58:37.186Z,10.60
2023-03-13T21:01:05.324Z,10.70
2023-03-13T21:03:35.171Z,10.70
2023-03-13T21:06:09.550Z,10.70
2023-03-13T21:08:38.557Z,10.70
2023-03-13T21:11:19.014Z,10.60
2023-03-13T21:13:46.224Z,10.50
2023-03-13T21:16:13.827Z,10.40
2023-03-13T21:18:40.692Z,10.30
2023-03-13T21:23:38.693Z,10.00
2023-03-13T21:26:05.990Z,10.00
2023-03-13T21:28:32.995Z,10.10
2023-03-13T21:31:06.763Z,10.10
2023-03-13T21:33:33.481Z,10.10
2023-03-13T21:36:00.265Z,10.20
2023-03-13T21:38:27.138Z,10.20
2023-03-13T21:40:53.922Z,10.10
2023-03-13T21:43:20.574Z,10.20
2023-03-13T21:45:47.275Z,10.10
2023-03-13T21:48:13.967Z,10.10
2023-03-13T21:50:40.687Z,10.10
2023-03-13T21:53:07.374Z,10.00
2023-03-13T21:55:35.342Z,10.00
2023-03-13T21:58:02.031Z,10.00
2023-03-13T22:00:28.811Z,9.90
2023-03-13T22:02:55.547Z,9.90
2023-03-13T22:05:22.241Z,9.90
2023-03-13T22:07:49.053Z,9.90
2023-03-13T22:10:15.951Z,9.80
2023-03-13T22:12:42.645Z,9.80
2023-03-13T22:15:10.126Z,9.80
2023-03-13T22:17:36.974Z,9.80
2023-03-13T22:20:05.100Z,9.80
2023-03-13T22:22:31.899Z,9.80
2023-03-13T22:24:58.626Z,9.80
2023-03-13T22:27:25.428Z,9.80
2023-03-13T22:29:52.213Z,9.90
2023-03-13T22:32:18.921Z,9.80
2023-03-13T22:34:47.952Z,9.80
2023-03-13T22:37:14.829Z,9.80
2023-03-13T22:39:41.552Z,9.70
2023-03-13T22:42:08.296Z,9.70
2023-03-13T22:44:35.166Z,9.70
2023-03-13T22:47:01.976Z,9.60
2023-03-13T22:49:28.903Z,9.50
2023-03-13T22:51:55.755Z,9.50
2023-03-13T22:54:22.525Z,9.50
2023-03-13T22:56:49.324Z,9.50
2023-03-13T22:59:16.092Z,9.50
2023-03-13T23:01:42.852Z,9.50
2023-03-13T23:04:09.659Z,9.50
2023-03-13T23:06:36.387Z,9.50
2023-03-13T23:09:03.646Z,9.50
2023-03-13T23:11:30.849Z,9.60
2023-03-13T23:13:57.681Z,9.50
2023-03-13T23:16:24.956Z,9.50
2023-03-13T23:18:51.947Z,9.50
2023-03-13T23:21:18.699Z,9.50
2023-03-13T23:23:45.812Z,9.40
2023-03-13T23:26:15.465Z,9.50
2023-03-13T23:28:42.512Z,9.40
2023-03-13T23:31:14.611Z,9.30
2023-03-13T23:33:41.821Z,9.30
2023-03-13T23:36:11.405Z,9.20
2023-03-13T23:38:38.344Z,9.20
2023-03-13T23:41:10.110Z,9.20
2023-03-13T23:43:37.068Z,9.20
2023-03-13T23:46:04.881Z,9.20
2023-03-13T23:48:31.995Z,9.20
2023-03-13T23:50:58.854Z,9.20
2023-03-13T23:53:25.601Z,9.20
2023-03-13T23:55:58.915Z,9.20
2023-03-13T23:58:25.769Z,9.20
